createdAt,value
2022-11-25T00:03:48.395Z,7.30
2022-11-25T00:08:54.586Z,7.30
2022-11-25T00:13:57.802Z,7.20
2022-11-25T00:19:00.470Z,7.30
2022-11-25T00:24:06.628Z,7.30
2022-11-25T00:29:11.978Z,7.30
2022-11-25T00:34:15.263Z,7.20
2022-11-25T00:39:18.586Z,7.10
2022-11-25T00:44:38.302Z,7.20
2022-11-25T00:49:44.052Z,7.20
2022-11-25T00:54:47.816Z,7.10
2022-11-25T00:59:50.279Z,7.10
2022-11-25T01:04:52.528Z,7.00
2022-11-25T01:09:54.861Z,7.00
2022-11-25T01:14:59.890Z,6.90
2022-11-25T01:20:03.773Z,6.90
2022-11-25T01:25:06.156Z,6.90
2022-11-25T01:30:09.208Z,6.80
2022-11-25T01:35:11.543Z,6.80
2022-11-25T01:40:13.861Z,6.80
2022-11-25T01:45:35.358Z,6.80
2022-11-25T01:50:37.877Z,6.80
2022-11-25T01:55:43.513Z,6.90
2022-11-25T02:00:51.441Z,6.90
2022-11-25T02:11:22.041Z,6.80
2022-11-25T02:16:24.296Z,6.80
2022-11-25T02:21:37.633Z,6.80
2022-11-25T02:26:40.063Z,6.70
2022-11-25T02:31:44.697Z,6.80
2022-11-25T02:36:47.109Z,6.80
2022-11-25T02:41:56.133Z,6.90
2022-11-25T02:46:58.360Z,7.00
2022-11-25T02:52:00.596Z,7.00
2022-11-25T02:57:04.431Z,7.00
2022-11-25T03:02:10.339Z,7.10
2022-11-25T03:07:12.626Z,7.10
2022-11-25T03:12:22.848Z,7.20
2022-11-25T03:17:28.751Z,7.20
2022-11-25T03:22:31.439Z,7.20
2022-11-25T03:27:35.090Z,7.20
2022-11-25T03:32:38.275Z,7.20
2022-11-25T03:37:41.188Z,7.20
2022-11-25T03:42:44.144Z,7.30
2022-11-25T03:47:46.479Z,7.50
2022-11-25T03:52:48.804Z,7.50
2022-11-25T03:57:53.069Z,7.40
2022-11-25T04:02:56.689Z,7.40
2022-11-25T04:07:59.014Z,7.20
2022-11-25T04:13:02.241Z,7.10
2022-11-25T04:18:11.140Z,7.10
2022-11-25T04:23:15.434Z,7.00
2022-11-25T04:28:27.505Z,6.90
2022-11-25T04:33:30.437Z,6.80
2022-11-25T04:38:32.841Z,6.90
2022-11-25T04:43:37.683Z,7.00
2022-11-25T04:48:45.643Z,7.00
2022-11-25T04:53:49.988Z,7.00
2022-11-25T04:59:12.352Z,7.10
2022-11-25T05:04:19.146Z,7.20
2022-11-25T05:09:21.541Z,7.30
2022-11-25T05:14:33.211Z,7.40
2022-11-25T05:19:36.593Z,7.40
2022-11-25T05:24:39.601Z,7.60
2022-11-25T05:29:42.643Z,7.60
2022-11-25T05:34:46.465Z,7.70
2022-11-25T05:39:49.654Z,7.70
2022-11-25T05:45:17.908Z,7.80
2022-11-25T05:50:20.331Z,7.90
2022-11-25T05:55:38.290Z,8.10
2022-11-25T06:00:48.574Z,8.20
2022-11-25T06:05:52.537Z,8.20
2022-11-25T06:10:55.352Z,8.20
2022-11-25T06:15:57.770Z,8.30
2022-11-25T06:21:00.596Z,8.30
2022-11-25T06:31:19.636Z,8.50
2022-11-25T06:36:41.735Z,8.60
2022-11-25T06:41:43.928Z,8.70
2022-11-25T06:46:46.392Z,9.00
2022-11-25T06:51:50.246Z,9.00
2022-11-25T06:56:53.846Z,9.00
2022-11-25T07:01:56.673Z,9.00
2022-11-25T07:06:58.906Z,9.10
2022-11-25T07:12:01.171Z,9.30
2022-11-25T07:17:07.424Z,9.50
2022-11-25T07:22:12.647Z,10.90
2022-11-25T07:27:15.043Z,12.70
2022-11-25T07:32:17.282Z,14.70
2022-11-25T07:37:19.661Z,16.30
2022-11-25T07:42:21.883Z,17.20
2022-11-25T07:47:25.455Z,17.50
2022-11-25T07:52:27.725Z,17.80
2022-11-25T07:57:29.890Z,18.30
2022-11-25T08:02:32.155Z,18.00
2022-11-25T08:07:36.633Z,17.70
2022-11-25T08:12:39.211Z,18.20
2022-11-25T08:17:41.421Z,19.10
2022-11-25T08:22:43.814Z,19.60
2022-11-25T08:27:46.054Z,20.50
2022-11-25T08:32:48.515Z,21.10
2022-11-25T08:37:50.930Z,21.50
2022-11-25T08:42:53.114Z,21.20
2022-11-25T08:47:55.498Z,20.80
2022-11-25T08:52:58.618Z,19.50
2022-11-25T08:58:00.827Z,18.00
2022-11-25T09:03:04.480Z,16.70
2022-11-25T09:08:08.193Z,15.40
2022-11-25T09:13:11.703Z,14.50
2022-11-25T09:18:15.547Z,13.90
2022-11-25T09:23:17.909Z,13.60
2022-11-25T09:28:21.269Z,13.40
2022-11-25T09:33:23.897Z,13.20
2022-11-25T09:38:26.113Z,12.90
2022-11-25T09:54:37.622Z,12.50
2022-11-25T10:05:22.199Z,11.40
2022-11-25T10:10:36.035Z,11.40
2022-11-25T10:15:44.516Z,11.30
2022-11-25T10:20:49.443Z,11.30
2022-11-25T10:25:57.129Z,11.30
2022-11-25T10:41:33.107Z,11.00
2022-11-25T10:51:48.686Z,10.70
2022-11-25T10:56:56.846Z,10.50
2022-11-25T11:07:43.486Z,10.20
2022-11-25T11:13:05.744Z,10.20
2022-11-25T11:23:48.885Z,10.30
2022-11-25T11:28:59.421Z,10.10
2022-11-25T11:55:01.931Z,9.90
2022-11-25T12:00:11.723Z,9.90
2022-11-25T12:05:28.705Z,9.80
2022-11-25T12:10:38.659Z,9.90
2022-11-25T12:16:09.242Z,9.90
2022-11-25T12:21:28.194Z,9.70
2022-11-25T12:26:43.215Z,9.80
2022-11-25T12:31:54.482Z,9.70
2022-11-25T12:37:11.984Z,9.60
2022-11-25T12:42:25.060Z,9.50
2022-11-25T12:47:27.770Z,9.40
2022-11-25T12:52:55.020Z,9.40
2022-11-25T13:03:50.475Z,9.40
2022-11-25T13:19:37.014Z,9.10
2022-11-25T13:24:42.361Z,9.20
2022-11-25T13:45:44.807Z,8.90
2022-11-25T13:51:10.182Z,8.80
2022-11-25T13:56:16.177Z,8.80
2022-11-25T14:01:29.460Z,8.70
2022-11-25T14:28:08.946Z,8.90
2022-11-25T14:33:16.458Z,9.00
2022-11-25T14:38:35.137Z,9.00
2022-11-25T14:43:47.516Z,8.90
2022-11-25T14:48:59.794Z,8.80
2022-11-25T14:54:02.845Z,8.80
2022-11-25T14:59:09.454Z,9.00
2022-11-25T15:09:33.226Z,9.00
2022-11-25T15:14:40.215Z,8.90
2022-11-25T15:19:42.485Z,9.00
2022-11-25T15:24:51.615Z,9.10
2022-11-25T15:29:58.503Z,9.20
2022-11-25T15:35:01.852Z,9.30
2022-11-25T15:40:43.277Z,9.40
2022-11-25T15:45:48.541Z,9.40
2022-11-25T15:50:51.089Z,9.50
2022-11-25T15:55:53.777Z,9.60
2022-11-25T16:06:31.494Z,9.70
2022-11-25T16:11:45.169Z,9.70
2022-11-25T16:16:48.028Z,9.70
2022-11-25T16:21:58.991Z,9.80
2022-11-25T16:32:16.058Z,9.80
2022-11-25T16:37:18.567Z,9.90
2022-11-25T16:42:22.269Z,9.90
2022-11-25T16:47:26.915Z,10.10
2022-11-25T16:52:29.150Z,10.10
2022-11-25T16:57:31.399Z,10.10
2022-11-25T17:02:33.792Z,10.10
2022-11-25T17:07:36.237Z,10.00
2022-11-25T17:12:39.544Z,10.00
2022-11-25T17:17:41.790Z,10.10
2022-11-25T17:22:44.069Z,10.00
2022-11-25T17:27:47.485Z,10.00
2022-11-25T17:32:57.215Z,10.00
2022-11-25T17:38:01.169Z,10.00
2022-11-25T17:43:03.499Z,10.00
2022-11-25T17:48:10.850Z,10.00
2022-11-25T17:53:13.266Z,10.00
2022-11-25T17:58:16.006Z,10.00
2022-11-25T18:03:18.313Z,10.00
2022-11-25T18:08:20.581Z,10.00
2022-11-25T18:13:22.802Z,10.00
2022-11-25T18:18:25.750Z,10.00
2022-11-25T18:23:28.080Z,10.00
2022-11-25T18:28:32.013Z,10.00
2022-11-25T18:33:34.877Z,10.00
2022-11-25T18:38:37.102Z,10.00
2022-11-25T18:43:39.493Z,9.90
2022-11-25T18:48:42.860Z,9.90
2022-11-25T18:53:45.114Z,9.90
2022-11-25T18:58:51.802Z,9.80
2022-11-25T19:03:55.445Z,9.80
2022-11-25T19:08:57.838Z,9.80
2022-11-25T19:14:08.967Z,9.70
2022-11-25T19:19:16.409Z,9.70
2022-11-25T19:24:18.741Z,9.60
2022-11-25T19:29:25.976Z,9.50
2022-11-25T19:39:37.543Z,9.50
2022-11-25T20:00:21.601Z,9.10
2022-11-25T20:05:31.679Z,9.20
2022-11-25T20:10:33.946Z,9.10
2022-11-25T20:15:38.374Z,9.10
2022-11-25T20:20:41.985Z,9.00
2022-11-25T20:25:46.982Z,8.90
2022-11-25T20:30:49.793Z,8.80
2022-11-25T20:35:59.912Z,8.80
2022-11-25T20:41:04.311Z,8.80
2022-11-25T20:46:13.640Z,8.90
2022-11-25T20:51:20.056Z,8.90
2022-11-25T20:56:24.731Z,8.90
2022-11-25T21:01:27.023Z,8.90
2022-11-25T21:06:30.603Z,8.90
2022-11-25T21:11:33.257Z,9.00
2022-11-25T21:16:35.519Z,9.00
2022-11-25T21:21:42.012Z,9.00
2022-11-25T21:26:45.345Z,9.00
2022-11-25T21:31:47.609Z,9.10
2022-11-25T21:36:52.402Z,9.10
2022-11-25T21:41:55.812Z,9.00
2022-11-25T21:46:58.434Z,9.10
2022-11-25T21:52:00.666Z,9.10
2022-11-25T21:57:02.890Z,9.00
2022-11-25T22:02:17.648Z,9.00
2022-11-25T22:07:20.073Z,9.00
2022-11-25T22:12:31.002Z,9.00
2022-11-25T22:17:33.322Z,8.90
2022-11-25T22:22:35.896Z,8.90
2022-11-25T22:27:38.472Z,8.80
2022-11-25T22:32:40.810Z,8.80
2022-11-25T22:37:43.264Z,8.70
2022-11-25T22:42:48.297Z,8.60
2022-11-25T22:47:50.817Z,8.50
2022-11-25T22:52:54.073Z,8.40
2022-11-25T22:57:58.477Z,8.30
2022-11-25T23:03:02.743Z,8.40
2022-11-25T23:08:13.599Z,8.40
2022-11-25T23:13:17.288Z,8.30
2022-11-25T23:18:39.949Z,8.40
2022-11-25T23:23:42.170Z,8.40
2022-11-25T23:28:44.406Z,8.30
2022-11-25T23:33:49.449Z,8.30
2022-11-25T23:38:58.239Z,8.20
2022-11-25T23:44:11.312Z,8.20
2022-11-25T23:49:34.349Z,8.20
2022-11-25T23:54:41.468Z,8.20
2022-11-25T23:59:44.775Z,8.20
